Nearby METAR Reports

 

KRUE - Russellville, Arkansas, USA
Distance from station: ESE 28mi, 45km
Updated: Tue, 21-Aug-2018 1:53pm CDT
Overcast
Overcast
 
Temperature: 81°F , 27°C
Heat Index: 83°F , 28°C
Dew Point: 66°F , 19°C
Humidity: 62%
Barometer: 30.07 inHg , 1018.3 hPa
Clouds: Overcast
Visibility: 10 miles , 16 km
Cloud details: Few Clouds 3100 ft
Mostly cloudy 4100 ft
Overcast 4800 ft
2018/08/21 18:53 KRUE 211853Z AUTO 10SM FEW031 BKN041 OVC048 27/19 A3007 RMK AO2 SLP174 T02720194 $
KFSM - Fort Smith, Arkansas, USA
Distance from station: W 48mi, 77km
Updated: Tue, 21-Aug-2018 1:53pm CDT
Mostly cloudy
Mostly cloudy
 Wind from NNW
Wind: NNW 8 mph , 13 km/h
Temperature: 84°F , 29°C
Heat Index: 86°F , 30°C
Dew Point: 66°F , 19°C
Humidity: 55%
Barometer: 30.09 inHg , 1019 hPa
Clouds: Mostly cloudy
Visibility: 10 miles , 16 km
Cloud details: Mostly cloudy 4000 ft
Mostly cloudy 4700 ft
2018/08/21 18:53 KFSM 211853Z 33007KT 300V020 10SM BKN040 BKN047 29/19 A3009 RMK AO2 SLP185 T02890189
 
KFYV - Fayetteville, Arkansas, USA
Distance from station: NW 52mi, 84km
Updated: Tue, 21-Aug-2018 1:53pm CDT
Overcast
Overcast
 Wind from NNW
Wind: NNW 10 mph , 17 km/h
Temperature: 77°F , 25°C
Dew Point: 66°F , 19°C
Humidity: 69%
Barometer: 30.13 inHg , 1020.3 hPa
Clouds: Overcast
Visibility: 10 miles , 16 km
Cloud details: Overcast 3300 ft
2018/08/21 18:53 KFYV 211853Z 33009KT 10SM OVC033 25/19 A3013 RMK AO2 SLP192 T02500189
KASG - Springdale Muni, Arkansas, USA
Distance from station: NW 59mi, 95km
Updated: Tue, 21-Aug-2018 1:48pm CDT
Mostly cloudy
Mostly cloudy
 Wind from NNW
Wind: NNW 7 mph , 11 km/h, Gust: 18 mph , 30 km/h
Temperature: 77°F , 25°C
Dew Point: 66°F , 19°C
Humidity: 69%
Barometer: 30.15 inHg , 1021 hPa
Clouds: Mostly cloudy
Visibility: 10 miles , 16 km
Cloud details: Partly cloudy 2700 ft
Mostly cloudy 3400 ft
2018/08/21 18:48 KASG 211848Z 34006G16KT 10SM SCT027 BKN034 25/19 A3015
 
KHRO - Harrison, Arkansas, USA
Distance from station: NNE 60mi, 96km
Updated: Tue, 21-Aug-2018 1:53pm CDT
Partly cloudy
Partly cloudy
 Wind from NW
Wind: NW 10 mph , 17 km/h, Gust: 20 mph , 31 km/h
Temperature: 79°F , 26°C
Dew Point: 66°F , 19°C
Humidity: 65%
Barometer: 30.10 inHg , 1019.3 hPa
Clouds: Partly cloudy
Visibility: 10 miles , 16 km
Cloud details: Few Clouds 2000 ft
Partly cloudy 3300 ft
Partly cloudy 4000 ft
2018/08/21 18:53 KHRO 211853Z AUTO 31009G17KT 10SM FEW020 SCT033 SCT040 26/19 A3010 RMK AO2 SLP178 T02610194
KCCA - Clinton Muni, Arkansas, USA
Distance from station: E 61mi, 99km
Updated: Tue, 21-Aug-2018 2:35pm CDT
Haze, Overcast
Haze, Overcast
 Wind from W
Wind: W 8 mph , 13 km/h
Temperature: 81°F , 27°C
Heat Index: 84°F , 29°C
Dew Point: 68°F , 20°C
Humidity: 66%
Barometer: 30.06 inHg , 1017.9 hPa
Summary: Haze
Clouds: Overcast
Visibility: 6 miles , 10 km
Cloud details: Few Clouds 3200 ft
Few Clouds 3800 ft
Overcast 4900 ft
2018/08/21 19:35 KCCA 211935Z AUTO 28007KT 6SM HZ FEW032 FEW038 OVC049 27/20 A3006 RMK AO2